Time;durP1;ratioP1;P1;durP2;ratioP2;P2;SDS_P1;SDS_P2;PMS_P1;PMS_P2;Temp;Humidity;BMP_temperature;BMP_pressure;BME280_temperature;BME280_humidity;BME280_pressure;Samples;Min_cycle;Max_cycle;Signal;HPM_P1;HPM_P2
2023/08/09 00:00:43;;;;;;;4.07;2.33;;;;;;;;;;6246236;28;20020;-76
2023/08/09 00:03:43;;;;;;;5.33;2.67;;;;;;;;;;6246491;28;20120;-76
2023/08/09 00:06:43;;;;;;;5.70;2.70;;;;;;;;;;6245525;28;20120;-76
2023/08/09 00:09:44;;;;;;;4.30;2.87;;;;;;;;;;6245351;28;20491;-76
2023/08/09 00:12:44;;;;;;;5.30;2.50;;;;;;;;;;6243855;28;20032;-76
2023/08/09 00:15:44;;;;;;;3.33;2.10;;;;;;;;;;6244209;28;20124;-76
2023/08/09 00:18:44;;;;;;;3.43;2.03;;;;;;;;;;6239298;28;20032;-75
2023/08/09 00:21:46;;;;;;;5.90;2.67;;;;;;;;;;6245811;28;20040;-76
2023/08/09 00:24:46;;;;;;;4.38;2.25;;;;;;;;;;6249726;28;20024;-76
2023/08/09 00:27:46;;;;;;;5.00;2.13;;;;;;;;;;6241165;28;20025;-76
2023/08/09 00:30:46;;;;;;;3.42;2.60;;;;;;;;;;6248283;28;20098;-76
2023/08/09 00:33:47;;;;;;;4.37;2.73;;;;;;;;;;6245293;28;20021;-76
2023/08/09 00:36:48;;;;;;;4.67;2.47;;;;;;;;;;6243380;28;20037;-76
2023/08/09 00:39:50;;;;;;;4.33;2.43;;;;;;;;;;6226890;28;20053;-76
2023/08/09 00:42:51;;;;;;;4.03;2.17;;;;;;;;;;6244945;28;20478;-76
2023/08/09 00:45:51;;;;;;;5.03;2.40;;;;;;;;;;6240486;28;20026;-76
2023/08/09 00:48:51;;;;;;;8.83;2.83;;;;;;;;;;6228022;28;20053;-76
2023/08/09 00:51:52;;;;;;;3.23;2.53;;;;;;;;;;6224522;28;20060;-76
2023/08/09 00:54:53;;;;;;;5.75;2.72;;;;;;;;;;6249216;28;20022;-76
2023/08/09 00:57:54;;;;;;;7.57;2.77;;;;;;;;;;6249845;28;20032;-76
2023/08/09 01:00:54;;;;;;;6.30;2.42;;;;;;;;;;6244288;28;20024;-76
2023/08/09 01:03:54;;;;;;;5.87;2.30;;;;;;;;;;6243872;28;20041;-76
2023/08/09 01:07:03;;;;;;;2.50;2.20;;;;;;;;;;6244048;28;20793;-76
2023/08/09 01:10:03;;;;;;;7.63;3.17;;;;;;;;;;6243661;28;20025;-76
2023/08/09 01:13:05;;;;;;;6.97;3.10;;;;;;;;;;6244364;28;20545;-76
2023/08/09 01:16:07;;;;;;;7.25;2.85;;;;;;;;;;6244180;28;20026;-75
2023/08/09 01:19:09;;;;;;;6.20;2.90;;;;;;;;;;6243921;28;20024;-75
2023/08/09 01:22:17;;;;;;;5.07;2.83;;;;;;;;;;6243994;28;20498;-75
2023/08/09 01:25:18;;;;;;;7.65;3.00;;;;;;;;;;6244298;28;20379;-76
2023/08/09 01:28:18;;;;;;;5.70;2.60;;;;;;;;;;6243654;28;20029;-77
2023/08/09 01:31:19;;;;;;;5.63;3.37;;;;;;;;;;6240654;28;20100;-77
2023/08/09 01:34:19;;;;;;;6.78;3.70;;;;;;;;;;6243259;28;20037;-77
2023/08/09 01:37:19;;;;;;;3.83;2.80;;;;;;;;;;6243733;28;20092;-78
2023/08/09 01:40:20;;;;;;;6.68;3.03;;;;;;;;;;6243644;28;20036;-78
2023/08/09 01:43:21;;;;;;;4.27;2.97;;;;;;;;;;6226067;28;20075;-78
2023/08/09 01:46:21;;;;;;;4.57;2.80;;;;;;;;;;6243677;28;20033;-77
2023/08/09 01:49:23;;;;;;;4.10;2.53;;;;;;;;;;6244238;28;20040;-77
2023/08/09 01:52:23;;;;;;;5.63;3.33;;;;;;;;;;6240578;28;20021;-78
2023/08/09 01:55:25;;;;;;;4.93;3.23;;;;;;;;;;6234714;28;20122;-78
2023/08/09 01:58:25;;;;;;;;;;;;;;;;;;6242197;28;20021;-78
2023/08/09 02:01:26;;;;;;;5.13;3.00;;;;;;;;;;6242592;28;20355;-78
2023/08/09 02:04:26;;;;;;;7.10;4.00;;;;;;;;;;6225024;28;20086;-78
2023/08/09 02:07:27;;;;;;;5.67;3.40;;;;;;;;;;6243392;28;20774;-77
2023/08/09 02:10:27;;;;;;;5.38;2.90;;;;;;;;;;6242999;28;20081;-78
2023/08/09 02:13:27;;;;;;;5.33;3.10;;;;;;;;;;6239216;28;20045;-77
2023/08/09 02:16:27;;;;;;;6.03;3.20;;;;;;;;;;6225140;28;20025;-77
2023/08/09 02:19:28;;;;;;;5.10;3.25;;;;;;;;;;6243456;28;20036;-78
2023/08/09 02:22:34;;;;;;;6.27;3.33;;;;;;;;;;6242467;28;20077;-78
2023/08/09 02:25:34;;;;;;;6.68;3.17;;;;;;;;;;6224470;28;20021;-78
2023/08/09 02:28:34;;;;;;;8.20;4.10;;;;;;;;;;6224731;28;20395;-78
2023/08/09 02:31:35;;;;;;;10.20;4.23;;;;;;;;;;6242333;28;20164;-78
2023/08/09 02:34:35;;;;;;;6.15;2.95;;;;;;;;;;6242938;28;20021;-78
2023/08/09 02:37:36;;;;;;;6.43;2.97;;;;;;;;;;6241878;28;20108;-79
2023/08/09 02:40:37;;;;;;;7.22;3.35;;;;;;;;;;6242448;28;20013;-79
2023/08/09 02:43:37;;;;;;;5.67;4.13;;;;;;;;;;6236902;28;20104;-79
2023/08/09 02:46:38;;;;;;;6.63;3.90;;;;;;;;;;6242175;28;20047;-79
2023/08/09 02:49:39;;;;;;;4.97;3.38;;;;;;;;;;6240564;28;20048;-78
2023/08/09 02:52:41;;;;;;;5.03;3.10;;;;;;;;;;6248214;28;20031;-78
2023/08/09 02:55:42;;;;;;;5.53;4.00;;;;;;;;;;6241800;28;20034;-78
2023/08/09 02:58:42;;;;;;;6.28;3.47;;;;;;;;;;6242283;28;20832;-78
2023/08/09 03:01:44;;;;;;;7.40;3.30;;;;;;;;;;6237252;28;20022;-78
2023/08/09 03:04:44;;;;;;;6.95;3.90;;;;;;;;;;6243085;28;20077;-78
2023/08/09 03:07:44;;;;;;;6.93;4.83;;;;;;;;;;6249306;28;20018;-78
2023/08/09 03:10:44;;;;;;;7.33;4.30;;;;;;;;;;6242290;28;20356;-78
2023/08/09 03:13:45;;;;;;;11.43;4.37;;;;;;;;;;6228825;28;20364;-78
2023/08/09 03:16:45;;;;;;;8.40;4.00;;;;;;;;;;6246699;28;20020;-78
2023/08/09 03:19:46;;;;;;;7.40;4.50;;;;;;;;;;6247021;28;20423;-77
2023/08/09 03:22:48;;;;;;;5.57;3.60;;;;;;;;;;6229076;28;20060;-77
2023/08/09 03:25:48;;;;;;;7.13;3.92;;;;;;;;;;6246858;28;20025;-77
2023/08/09 03:28:49;;;;;;;8.43;4.07;;;;;;;;;;6262483;28;20542;-78
2023/08/09 03:31:50;;;;;;;8.30;3.37;;;;;;;;;;6272545;28;20723;-78
2023/08/09 03:34:50;;;;;;;8.20;4.25;;;;;;;;;;6253391;28;20411;-78
2023/08/09 03:37:50;;;;;;;5.80;4.20;;;;;;;;;;6270472;28;20040;-78
2023/08/09 03:40:51;;;;;;;7.03;4.43;;;;;;;;;;6271168;28;20013;-78
2023/08/09 03:43:51;;;;;;;7.90;4.33;;;;;;;;;;6271714;28;20033;-78
2023/08/09 03:46:51;;;;;;;8.33;4.83;;;;;;;;;;6271344;28;20041;-78
2023/08/09 03:49:51;;;;;;;6.83;4.30;;;;;;;;;;6270784;28;20051;-78
2023/08/09 03:52:52;;;;;;;6.53;4.53;;;;;;;;;;6267131;28;20024;-77
2023/08/09 03:55:52;;;;;;;7.07;4.30;;;;;;;;;;6270915;28;20131;-77
2023/08/09 03:58:52;;;;;;;10.23;3.87;;;;;;;;;;6270575;28;20024;-77
2023/08/09 04:01:52;;;;;;;6.57;4.38;;;;;;;;;;6271861;28;20822;-78
2023/08/09 04:04:52;;;;;;;7.57;4.70;;;;;;;;;;6270483;28;20108;-78
2023/08/09 04:07:53;;;;;;;6.03;4.17;;;;;;;;;;6252887;28;20503;-79
2023/08/09 04:10:54;;;;;;;15.27;4.27;;;;;;;;;;6270431;28;20056;-79
2023/08/09 04:13:54;;;;;;;6.25;4.05;;;;;;;;;;6248687;28;20072;-79
2023/08/09 04:16:56;;;;;;;6.87;3.40;;;;;;;;;;6269640;28;20581;-79
2023/08/09 04:19:56;;;;;;;;;;;;;;;;;;6270922;28;20036;-78
2023/08/09 04:22:58;;;;;;;8.85;4.28;;;;;;;;;;6270282;28;19909;-78
2023/08/09 04:25:59;;;;;;;8.18;4.70;;;;;;;;;;6270949;28;20032;-78
2023/08/09 04:29:00;;;;;;;8.43;4.87;;;;;;;;;;6269958;28;20560;-78
2023/08/09 04:32:01;;;;;;;10.73;5.25;;;;;;;;;;6271249;28;20075;-79
2023/08/09 04:35:02;;;;;;;6.63;4.20;;;;;;;;;;6276082;28;20032;-79
2023/08/09 04:38:05;;;;;;;7.60;4.50;;;;;;;;;;6273389;28;20094;-79
2023/08/09 04:41:05;;;;;;;8.38;4.28;;;;;;;;;;6269632;28;20013;-79
2023/08/09 04:44:06;;;;;;;7.57;4.40;;;;;;;;;;6251429;28;20442;-79
2023/08/09 04:47:06;;;;;;;7.40;4.80;;;;;;;;;;6251667;28;20045;-79
2023/08/09 04:50:07;;;;;;;7.77;5.20;;;;;;;;;;6269061;28;20483;-79
2023/08/09 04:53:07;;;;;;;8.23;5.10;;;;;;;;;;6269416;28;20485;-77
2023/08/09 04:56:07;;;;;;;9.93;4.73;;;;;;;;;;6261523;28;20029;-77
2023/08/09 04:59:07;;;;;;;6.63;3.90;;;;;;;;;;6272100;28;20065;-77
2023/08/09 05:02:08;;;;;;;8.27;4.07;;;;;;;;;;6276686;28;20124;-77
2023/08/09 05:05:09;;;;;;;7.60;4.13;;;;;;;;;;6269389;28;20655;-78
2023/08/09 05:08:09;;;;;;;5.53;3.83;;;;;;;;;;6270275;28;20518;-78
2023/08/09 05:11:09;;;;;;;6.30;4.07;;;;;;;;;;6274857;28;20028;-78
2023/08/09 05:14:10;;;;;;;5.77;4.27;;;;;;;;;;6250613;28;20033;-78
2023/08/09 05:17:10;;;;;;;7.13;3.80;;;;;;;;;;6269213;28;20117;-77
2023/08/09 05:20:11;;;;;;;7.10;4.03;;;;;;;;;;6268686;28;20486;-77
2023/08/09 05:23:11;;;;;;;7.80;4.47;;;;;;;;;;6268706;28;20017;-77
2023/08/09 05:26:11;;;;;;;5.93;3.23;;;;;;;;;;6251349;28;20263;-77
2023/08/09 05:29:11;;;;;;;5.65;4.00;;;;;;;;;;6268771;28;20029;-77
2023/08/09 05:32:12;;;;;;;8.80;4.53;;;;;;;;;;6257757;28;20025;-77
2023/08/09 05:35:12;;;;;;;5.93;4.07;;;;;;;;;;6267784;28;20036;-77
2023/08/09 05:38:12;;;;;;;8.00;4.80;;;;;;;;;;6269307;28;20052;-77
2023/08/09 05:41:13;;;;;;;8.07;4.43;;;;;;;;;;6267960;28;20021;-77
2023/08/09 05:44:13;;;;;;;6.20;3.23;;;;;;;;;;6263637;28;20021;-77
2023/08/09 05:47:13;;;;;;;6.10;3.50;;;;;;;;;;6268185;28;20056;-77
2023/08/09 05:50:16;;;;;;;9.48;3.85;;;;;;;;;;6269766;28;20032;-77
2023/08/09 05:53:16;;;;;;;9.25;4.88;;;;;;;;;;6254549;28;20025;-76
2023/08/09 05:56:16;;;;;;;7.18;3.58;;;;;;;;;;6266911;28;20431;-76
2023/08/09 05:59:16;;;;;;;15.07;3.80;;;;;;;;;;6270380;28;20048;-76
2023/08/09 06:02:16;;;;;;;9.07;4.17;;;;;;;;;;6272848;28;20391;-76
2023/08/09 06:05:21;;;;;;;7.73;3.20;;;;;;;;;;6271852;28;20017;-77
2023/08/09 06:08:21;;;;;;;5.72;2.92;;;;;;;;;;6266997;28;20392;-77
2023/08/09 06:11:21;;;;;;;7.22;3.00;;;;;;;;;;6264550;28;20020;-77
2023/08/09 06:14:22;;;;;;;7.70;3.50;;;;;;;;;;6267374;28;20021;-77
2023/08/09 06:17:22;;;;;;;4.85;2.60;;;;;;;;;;6249223;28;20108;-77
2023/08/09 06:20:23;;;;;;;5.15;2.30;;;;;;;;;;6248472;28;20534;-77
2023/08/09 06:23:23;;;;;;;5.57;2.97;;;;;;;;;;6266917;28;20017;-77
2023/08/09 06:26:23;;;;;;;6.60;3.03;;;;;;;;;;6267846;28;20035;-77
2023/08/09 06:29:25;;;;;;;6.90;2.85;;;;;;;;;;6267306;28;20679;-77
2023/08/09 06:32:25;;;;;;;5.55;2.95;;;;;;;;;;6268256;28;20041;-77
2023/08/09 06:35:25;;;;;;;3.83;2.47;;;;;;;;;;6268393;28;20107;-77
2023/08/09 06:38:25;;;;;;;3.33;2.30;;;;;;;;;;6275173;28;20016;-77
2023/08/09 06:41:26;;;;;;;3.60;2.17;;;;;;;;;;6267034;28;20139;-76
2023/08/09 06:44:26;;;;;;;5.63;2.87;;;;;;;;;;6249378;28;20083;-77
2023/08/09 06:47:26;;;;;;;5.20;2.87;;;;;;;;;;6274481;28;20067;-77
2023/08/09 06:50:27;;;;;;;3.72;2.00;;;;;;;;;;6270612;28;20074;-77
2023/08/09 06:53:27;;;;;;;4.47;2.67;;;;;;;;;;6271128;28;20395;-76
2023/08/09 06:56:27;;;;;;;4.67;2.17;;;;;;;;;;6267047;28;20425;-77
2023/08/09 06:59:27;;;;;;;4.73;2.70;;;;;;;;;;6274297;28;20025;-77
2023/08/09 07:02:28;;;;;;;3.38;2.33;;;;;;;;;;6275129;28;20080;-77
2023/08/09 07:05:28;;;;;;;2.53;1.93;;;;;;;;;;6271761;28;20090;-77
2023/08/09 07:08:28;;;;;;;4.60;2.50;;;;;;;;;;6273539;28;20033;-77
2023/08/09 07:11:28;;;;;;;5.00;1.87;;;;;;;;;;6271715;28;20090;-76
2023/08/09 07:14:30;;;;;;;4.17;2.10;;;;;;;;;;6267430;28;20128;-77
2023/08/09 07:17:30;;;;;;;4.38;2.65;;;;;;;;;;6273186;28;20379;-77
2023/08/09 07:20:30;;;;;;;3.30;1.93;;;;;;;;;;6265002;28;20027;-77
2023/08/09 07:23:31;;;;;;;4.53;2.30;;;;;;;;;;6266827;28;20470;-77
2023/08/09 07:26:33;;;;;;;4.97;2.10;;;;;;;;;;6271688;28;20021;-77
2023/08/09 07:29:33;;;;;;;4.03;2.42;;;;;;;;;;6271249;28;20496;-77
2023/08/09 07:32:33;;;;;;;4.83;2.23;;;;;;;;;;6272408;28;20071;-77
2023/08/09 07:35:34;;;;;;;3.77;1.70;;;;;;;;;;6272448;28;20394;-77
2023/08/09 07:38:36;;;;;;;6.03;2.80;;;;;;;;;;6270796;28;20063;-76
2023/08/09 07:41:37;;;;;;;2.72;2.10;;;;;;;;;;6274749;28;20025;-76
2023/08/09 07:44:37;;;;;;;3.25;2.00;;;;;;;;;;6271264;28;20119;-76
2023/08/09 07:47:37;;;;;;;3.50;1.70;;;;;;;;;;6268460;28;20051;-76
2023/08/09 07:50:37;;;;;;;4.33;2.20;;;;;;;;;;6274429;28;20066;-76
2023/08/09 07:53:39;;;;;;;4.55;1.92;;;;;;;;;;6270262;28;20092;-76
2023/08/09 07:56:39;;;;;;;;;;;;;;;;;;6265926;28;20012;-76
2023/08/09 07:59:39;;;;;;;8.70;2.53;;;;;;;;;;6268941;28;20338;-76
2023/08/09 08:02:41;;;;;;;5.80;1.60;;;;;;;;;;6270516;28;20029;-76
2023/08/09 08:05:42;;;;;;;6.20;2.80;;;;;;;;;;6270672;28;20079;-76
2023/08/09 08:08:42;;;;;;;5.13;2.63;;;;;;;;;;6250079;28;20033;-76
2023/08/09 08:11:43;;;;;;;3.80;2.50;;;;;;;;;;6270014;28;20056;-76
2023/08/09 08:14:43;;;;;;;4.70;2.22;;;;;;;;;;6250146;28;20033;-77
2023/08/09 08:17:46;;;;;;;5.50;2.10;;;;;;;;;;6271058;28;20455;-76
2023/08/09 08:20:46;;;;;;;4.30;2.42;;;;;;;;;;6270033;28;20028;-76
2023/08/09 08:23:46;;;;;;;4.03;1.97;;;;;;;;;;6269743;28;20044;-75
2023/08/09 08:26:46;;;;;;;4.25;2.47;;;;;;;;;;6269726;28;20054;-75
2023/08/09 08:29:46;;;;;;;3.70;1.80;;;;;;;;;;6250094;28;20766;-76
2023/08/09 08:32:48;;;;;;;3.38;2.05;;;;;;;;;;6270163;28;20025;-75
2023/08/09 08:35:49;;;;;;;2.97;1.90;;;;;;;;;;6267275;28;20033;-75
2023/08/09 08:38:50;;;;;;;3.90;1.97;;;;;;;;;;6263489;28;20099;-74
2023/08/09 08:41:51;;;;;;;4.47;2.25;;;;;;;;;;6266065;28;20086;-74
2023/08/09 08:44:52;;;;;;;;;;;;;;;;;;6267716;28;20029;-75
2023/08/09 08:47:53;;;;;;;3.00;1.37;;;;;;;;;;6246520;28;19924;-77
2023/08/09 08:50:54;;;;;;;2.55;1.70;;;;;;;;;;6243393;28;20033;-76
2023/08/09 08:53:54;;;;;;;3.13;1.77;;;;;;;;;;6243497;28;20061;-76
2023/08/09 08:56:55;;;;;;;3.57;1.90;;;;;;;;;;6242665;28;20079;-76
2023/08/09 08:59:56;;;;;;;5.17;2.20;;;;;;;;;;6238707;28;20029;-76
2023/08/09 09:02:57;;;;;;;2.83;1.83;;;;;;;;;;6242895;28;20021;-77
2023/08/09 09:05:57;;;;;;;3.03;1.70;;;;;;;;;;6244132;28;20021;-77
2023/08/09 09:08:59;;;;;;;4.20;2.27;;;;;;;;;;6244432;28;20347;-77
2023/08/09 09:12:03;;;;;;;4.85;1.75;;;;;;;;;;6246652;28;20021;-77
2023/08/09 09:15:04;;;;;;;2.17;1.40;;;;;;;;;;6234377;28;20021;-76
2023/08/09 09:18:05;;;;;;;1.45;1.35;;;;;;;;;;6243107;28;20013;-77
2023/08/09 09:21:06;;;;;;;6.13;2.08;;;;;;;;;;6247624;28;20028;-76
2023/08/09 09:24:10;;;;;;;;;;;;;;;;;;6243945;28;20104;-76
2023/08/09 09:27:10;;;;;;;5.38;2.13;;;;;;;;;;6223343;28;20489;-76
2023/08/09 09:30:19;;;;;;;2.20;1.43;;;;;;;;;;6243474;28;20049;-77
2023/08/09 09:33:30;;;;;;;5.47;2.10;;;;;;;;;;6224229;28;20037;-77
2023/08/09 09:36:30;;;;;;;2.58;1.70;;;;;;;;;;6238013;28;20036;-77
2023/08/09 09:39:31;;;;;;;2.50;1.50;;;;;;;;;;6243211;28;20105;-77
2023/08/09 09:42:32;;;;;;;2.77;1.80;;;;;;;;;;6220796;28;20561;-77
2023/08/09 09:45:33;;;;;;;4.22;1.83;;;;;;;;;;6242077;28;20029;-77
2023/08/09 09:48:34;;;;;;;3.10;1.50;;;;;;;;;;6224812;28;20045;-77
2023/08/09 09:51:35;;;;;;;7.57;2.25;;;;;;;;;;6242804;28;20391;-77
2023/08/09 09:54:35;;;;;;;3.17;1.60;;;;;;;;;;6230970;28;20033;-77
2023/08/09 09:57:37;;;;;;;8.18;2.35;;;;;;;;;;6243579;28;20088;-76
2023/08/09 10:00:37;;;;;;;5.57;2.13;;;;;;;;;;6239934;28;20021;-76
2023/08/09 10:03:42;;;;;;;4.80;2.00;;;;;;;;;;6226421;28;20025;-75
2023/08/09 10:06:43;;;;;;;3.78;1.90;;;;;;;;;;6246673;28;20025;-75
2023/08/09 10:09:43;;;;;;;4.13;2.07;;;;;;;;;;6245228;28;20074;-76
2023/08/09 10:12:47;;;;;;;2.83;1.33;;;;;;;;;;6244008;28;20108;-77
2023/08/09 10:15:51;;;;;;;9.52;2.22;;;;;;;;;;6242127;28;20032;-75
2023/08/09 10:18:54;;;;;;;3.33;1.88;;;;;;;;;;6241904;28;20057;-76
2023/08/09 10:21:54;;;;;;;5.30;2.22;;;;;;;;;;6239037;28;20478;-76
2023/08/09 10:24:57;;;;;;;3.80;2.23;;;;;;;;;;6243082;28;20025;-76
2023/08/09 10:28:01;;;;;;;3.78;1.95;;;;;;;;;;6242329;28;20492;-75
2023/08/09 10:31:01;;;;;;;4.88;2.15;;;;;;;;;;6243556;28;20021;-76
2023/08/09 10:34:07;;;;;;;5.25;2.47;;;;;;;;;;6242494;28;20020;-76
2023/08/09 10:37:09;;;;;;;4.93;1.98;;;;;;;;;;6240997;28;20029;-76
2023/08/09 10:40:11;;;;;;;3.85;2.10;;;;;;;;;;6242466;28;20376;-77
2023/08/09 10:43:18;;;;;;;6.22;2.50;;;;;;;;;;6241517;28;20075;-77
2023/08/09 10:46:24;;;;;;;5.70;2.50;;;;;;;;;;6240313;28;20029;-77
2023/08/09 10:49:31;;;;;;;5.57;1.92;;;;;;;;;;6241943;28;20450;-77
2023/08/09 10:52:31;;;;;;;3.35;2.00;;;;;;;;;;6241826;28;20038;-76
2023/08/09 10:55:32;;;;;;;4.22;2.03;;;;;;;;;;6241816;28;20057;-76
2023/08/09 10:58:32;;;;;;;3.00;1.50;;;;;;;;;;6240746;28;20516;-76
2023/08/09 11:01:36;;;;;;;4.70;2.23;;;;;;;;;;6240639;28;20101;-76
2023/08/09 11:04:36;;;;;;;2.13;1.92;;;;;;;;;;6223787;28;20017;-76
2023/08/09 11:07:41;;;;;;;2.50;1.60;;;;;;;;;;6241449;28;20316;-77
2023/08/09 11:10:42;;;;;;;2.63;2.05;;;;;;;;;;6223598;28;20399;-76
2023/08/09 11:13:42;;;;;;;4.20;2.30;;;;;;;;;;6240798;28;20057;-77
2023/08/09 11:16:43;;;;;;;5.17;2.50;;;;;;;;;;6240711;28;20120;-75
2023/08/09 11:19:43;;;;;;;3.28;2.60;;;;;;;;;;6245094;28;20040;-74
2023/08/09 11:22:44;;;;;;;3.93;2.20;;;;;;;;;;6223026;28;20120;-75
2023/08/09 11:25:45;;;;;;;3.83;2.13;;;;;;;;;;6233749;28;20029;-77
2023/08/09 11:28:45;;;;;;;3.97;2.40;;;;;;;;;;6239904;28;20104;-77
2023/08/09 11:31:47;;;;;;;5.93;2.90;;;;;;;;;;6241288;28;20033;-77
2023/08/09 11:34:49;;;;;;;5.68;2.80;;;;;;;;;;6228397;28;20029;-77
2023/08/09 11:37:50;;;;;;;;;;;;;;;;;;6246801;28;20365;-77
2023/08/09 11:40:51;;;;;;;5.43;2.90;;;;;;;;;;6246304;28;19940;-78
2023/08/09 11:43:54;;;;;;;3.83;2.50;;;;;;;;;;6245999;28;20272;-78
2023/08/09 11:46:55;;;;;;;6.10;2.88;;;;;;;;;;6233092;28;20131;-76
2023/08/09 11:49:55;;;;;;;3.70;2.63;;;;;;;;;;6227740;28;20021;-76
2023/08/09 11:52:55;;;;;;;4.57;2.83;;;;;;;;;;6224527;28;20565;-79
2023/08/09 11:56:04;;;;;;;6.20;3.00;;;;;;;;;;6244778;28;20026;-80
2023/08/09 11:59:04;;;;;;;3.90;2.97;;;;;;;;;;6242339;28;20198;-80
2023/08/09 12:02:06;;;;;;;4.37;2.67;;;;;;;;;;6247534;28;20660;-79
2023/08/09 12:05:10;;;;;;;4.22;2.33;;;;;;;;;;6246667;28;20022;-79
2023/08/09 12:08:10;;;;;;;4.20;2.45;;;;;;;;;;6245284;28;20076;-79
2023/08/09 12:11:14;;;;;;;3.93;2.43;;;;;;;;;;6245158;28;20029;-79
2023/08/09 12:14:14;;;;;;;11.02;2.80;;;;;;;;;;6243485;28;20475;-79
2023/08/09 12:17:19;;;;;;;4.43;2.43;;;;;;;;;;6245574;28;20040;-79
2023/08/09 12:20:19;;;;;;;5.00;2.63;;;;;;;;;;6244836;28;20518;-78
2023/08/09 12:23:19;;;;;;;6.10;2.87;;;;;;;;;;6246565;28;20033;-79
2023/08/09 12:26:21;;;;;;;2.83;2.23;;;;;;;;;;6245081;28;20033;-78
2023/08/09 12:29:21;;;;;;;;;;;;;;;;;;6245729;28;20683;-78
2023/08/09 12:32:21;;;;;;;3.65;2.33;;;;;;;;;;6248375;28;19962;-78
2023/08/09 12:35:21;;;;;;;6.83;2.37;;;;;;;;;;6247479;28;20014;-78
2023/08/09 12:38:24;;;;;;;5.28;2.90;;;;;;;;;;6227423;28;20037;-78
2023/08/09 12:41:25;;;;;;;5.97;2.45;;;;;;;;;;6244802;28;20025;-78
2023/08/09 12:44:26;;;;;;;3.53;2.13;;;;;;;;;;6225231;28;20029;-78
2023/08/09 12:47:26;;;;;;;4.47;2.50;;;;;;;;;;6244860;28;20096;-78
2023/08/09 12:50:26;;;;;;;4.13;2.03;;;;;;;;;;6244402;28;20036;-78
2023/08/09 12:53:27;;;;;;;4.10;1.97;;;;;;;;;;6243963;28;20028;-77
2023/08/09 12:56:27;;;;;;;4.83;2.63;;;;;;;;;;6241584;28;20045;-78
2023/08/09 12:59:28;;;;;;;4.97;2.35;;;;;;;;;;6244415;28;20021;-78
2023/08/09 13:02:28;;;;;;;2.00;1.70;;;;;;;;;;6239977;28;20088;-79
2023/08/09 13:05:29;;;;;;;4.70;2.33;;;;;;;;;;6242539;28;20035;-79
2023/08/09 13:08:30;;;;;;;;;;;;;;;;;;6244396;28;20028;-79
2023/08/09 13:11:30;;;;;;;2.47;1.70;;;;;;;;;;6243382;28;20399;-79
2023/08/09 13:14:30;;;;;;;6.17;2.07;;;;;;;;;;6225586;28;20068;-79
2023/08/09 13:17:31;;;;;;;4.57;1.70;;;;;;;;;;6224888;28;20088;-80
2023/08/09 13:20:31;;;;;;;2.97;2.08;;;;;;;;;;6244079;28;20029;-79
2023/08/09 13:23:31;;;;;;;3.70;1.97;;;;;;;;;;6224081;28;20030;-78
2023/08/09 13:26:31;;;;;;;4.23;2.17;;;;;;;;;;6243359;28;20036;-76
2023/08/09 13:29:32;;;;;;;3.40;1.93;;;;;;;;;;6240190;28;20025;-76
2023/08/09 13:32:32;;;;;;;2.30;2.07;;;;;;;;;;6243240;28;20029;-76
2023/08/09 13:35:34;;;;;;;3.17;1.90;;;;;;;;;;6243296;28;20515;-76
2023/08/09 13:38:40;;;;;;;3.97;2.08;;;;;;;;;;6239721;28;20032;-76
2023/08/09 13:41:41;;;;;;;2.40;1.67;;;;;;;;;;6240971;28;20014;-76
2023/08/09 13:44:41;;;;;;;3.42;1.85;;;;;;;;;;6240283;28;20120;-77
2023/08/09 13:47:41;;;;;;;2.67;1.80;;;;;;;;;;6243478;28;20152;-76
2023/08/09 13:50:41;;;;;;;1.70;1.53;;;;;;;;;;6242821;28;20087;-76
2023/08/09 13:53:41;;;;;;;2.50;2.13;;;;;;;;;;6242641;28;20792;-76
2023/08/09 13:56:42;;;;;;;4.23;1.73;;;;;;;;;;6244301;28;20060;-77
2023/08/09 13:59:42;;;;;;;3.43;1.97;;;;;;;;;;6242966;28;20032;-76
2023/08/09 14:02:43;;;;;;;4.57;2.60;;;;;;;;;;6247087;28;20650;-76
2023/08/09 14:05:43;;;;;;;3.07;1.63;;;;;;;;;;6244068;28;20036;-76
2023/08/09 14:08:43;;;;;;;3.27;2.17;;;;;;;;;;6242646;28;20064;-76
2023/08/09 14:11:43;;;;;;;7.07;2.93;;;;;;;;;;6242649;28;20029;-77
2023/08/09 14:14:44;;;;;;;3.17;1.97;;;;;;;;;;6246496;28;20026;-77
2023/08/09 14:17:44;;;;;;;4.03;1.83;;;;;;;;;;6225032;28;20562;-77
2023/08/09 14:20:44;;;;;;;3.33;2.37;;;;;;;;;;6243949;28;20021;-77
2023/08/09 14:23:44;;;;;;;3.23;1.67;;;;;;;;;;6242496;28;20048;-77
2023/08/09 14:26:45;;;;;;;3.33;2.33;;;;;;;;;;6237586;28;20031;-77
2023/08/09 14:29:45;;;;;;;3.07;1.80;;;;;;;;;;6236929;28;20028;-77
2023/08/09 14:32:46;;;;;;;2.17;1.60;;;;;;;;;;6244053;28;20444;-77
2023/08/09 14:35:46;;;;;;;15.27;2.80;;;;;;;;;;6242204;28;20052;-80
2023/08/09 14:38:46;;;;;;;2.40;1.40;;;;;;;;;;6222338;28;20028;-80
2023/08/09 14:41:46;;;;;;;6.80;2.43;;;;;;;;;;6247912;28;20020;-78
2023/08/09 14:44:47;;;;;;;4.67;2.43;;;;;;;;;;6240644;28;20018;-78
2023/08/09 14:47:47;;;;;;;5.00;2.37;;;;;;;;;;6228361;28;20504;-78
2023/08/09 14:50:48;;;;;;;2.87;2.00;;;;;;;;;;6237620;28;20067;-78
2023/08/09 14:53:48;;;;;;;4.73;1.90;;;;;;;;;;6243011;28;20128;-78
2023/08/09 14:56:48;;;;;;;2.75;2.30;;;;;;;;;;6234042;28;20029;-77
2023/08/09 14:59:48;;;;;;;3.17;2.00;;;;;;;;;;6233598;28;20018;-78
2023/08/09 15:02:49;;;;;;;2.50;1.67;;;;;;;;;;6241244;28;20499;-78
2023/08/09 15:05:49;;;;;;;1.80;1.50;;;;;;;;;;6234975;28;20247;-78
2023/08/09 15:08:50;;;;;;;2.73;1.67;;;;;;;;;;6222933;28;20107;-78
2023/08/09 15:11:50;;;;;;;4.27;1.80;;;;;;;;;;6245759;28;20116;-78
2023/08/09 15:14:50;;;;;;;2.92;2.08;;;;;;;;;;6246599;28;20033;-78
2023/08/09 15:17:51;;;;;;;4.45;1.67;;;;;;;;;;6250501;28;20104;-78
2023/08/09 15:20:52;;;;;;;5.00;1.92;;;;;;;;;;6228750;28;20024;-77
2023/08/09 15:23:53;;;;;;;2.23;1.50;;;;;;;;;;6229024;28;20017;-77
2023/08/09 15:26:53;;;;;;;3.42;2.28;;;;;;;;;;6246705;28;20021;-77
2023/08/09 15:29:55;;;;;;;5.67;2.70;;;;;;;;;;6229240;28;20571;-77
2023/08/09 15:32:56;;;;;;;;;;;;;;;;;;6247554;28;20060;-77
2023/08/09 15:35:56;;;;;;;2.53;1.27;;;;;;;;;;6245344;28;20397;-77
2023/08/09 15:38:57;;;;;;;3.87;1.90;;;;;;;;;;6245364;28;20026;-77
2023/08/09 15:41:57;;;;;;;5.45;1.63;;;;;;;;;;6246961;28;20041;-77
2023/08/09 15:44:58;;;;;;;2.93;1.53;;;;;;;;;;6241637;28;20037;-77
2023/08/09 15:47:58;;;;;;;2.00;1.27;;;;;;;;;;6219853;28;20042;-79
2023/08/09 15:50:58;;;;;;;3.43;1.73;;;;;;;;;;6245337;28;20021;-78
2023/08/09 15:53:59;;;;;;;2.70;1.75;;;;;;;;;;6244347;28;20085;-79
2023/08/09 15:56:59;;;;;;;3.73;2.17;;;;;;;;;;6248006;28;20025;-78
2023/08/09 15:59:59;;;;;;;5.83;2.20;;;;;;;;;;6248842;28;20060;-79
2023/08/09 16:03:00;;;;;;;3.40;1.80;;;;;;;;;;6242505;28;20022;-79
2023/08/09 16:06:00;;;;;;;3.70;1.50;;;;;;;;;;6225395;28;20029;-79
2023/08/09 16:09:07;;;;;;;1.95;1.40;;;;;;;;;;6244069;28;20512;-78
2023/08/09 16:12:10;;;;;;;2.78;1.60;;;;;;;;;;6209511;28;20033;-79
2023/08/09 16:15:10;;;;;;;2.03;1.52;;;;;;;;;;6239131;28;20030;-79
2023/08/09 16:18:10;;;;;;;3.03;1.73;;;;;;;;;;6226038;28;20099;-79
2023/08/09 16:21:11;;;;;;;3.50;1.63;;;;;;;;;;6238094;28;20037;-79
2023/08/09 16:24:12;;;;;;;2.67;1.80;;;;;;;;;;6225943;28;20013;-79
2023/08/09 16:27:12;;;;;;;5.55;2.60;;;;;;;;;;6225634;28;20270;-79
2023/08/09 16:30:13;;;;;;;3.63;2.47;;;;;;;;;;6231102;28;20068;-78
2023/08/09 16:33:13;;;;;;;4.43;2.00;;;;;;;;;;6247810;28;20102;-78
2023/08/09 16:36:13;;;;;;;4.33;2.03;;;;;;;;;;6225753;28;20338;-79
2023/08/09 16:39:13;;;;;;;4.17;2.50;;;;;;;;;;6242524;28;20475;-79
2023/08/09 16:42:15;;;;;;;5.07;1.83;;;;;;;;;;6239018;28;20025;-79
2023/08/09 16:45:15;;;;;;;2.83;2.22;;;;;;;;;;6238866;28;20071;-79
2023/08/09 16:48:15;;;;;;;4.30;2.43;;;;;;;;;;6242969;28;20507;-79
2023/08/09 16:51:16;;;;;;;3.00;2.70;;;;;;;;;;6240706;28;20514;-79
2023/08/09 16:54:16;;;;;;;4.43;2.10;;;;;;;;;;6242629;28;20097;-78
2023/08/09 16:57:16;;;;;;;3.37;1.80;;;;;;;;;;6224347;28;20021;-79
2023/08/09 17:00:18;;;;;;;4.83;2.37;;;;;;;;;;6242778;28;20083;-79
2023/08/09 17:03:19;;;;;;;;;;;;;;;;;;6245269;28;20049;-76
2023/08/09 17:06:19;;;;;;;5.32;2.33;;;;;;;;;;6242508;28;19909;-77
2023/08/09 17:09:19;;;;;;;3.30;1.83;;;;;;;;;;6241278;28;20334;-77
2023/08/09 17:12:20;;;;;;;6.50;2.30;;;;;;;;;;6242272;28;20040;-78
2023/08/09 17:15:21;;;;;;;4.03;2.55;;;;;;;;;;6242024;28;20037;-78
2023/08/09 17:18:21;;;;;;;6.30;3.33;;;;;;;;;;6244090;28;20021;-78
2023/08/09 17:21:21;;;;;;;10.50;3.57;;;;;;;;;;6243179;28;20076;-78
2023/08/09 17:24:22;;;;;;;7.67;2.87;;;;;;;;;;6242765;28;20075;-78
2023/08/09 17:27:22;;;;;;;5.60;3.10;;;;;;;;;;6243340;28;20025;-78
2023/08/09 17:30:22;;;;;;;8.60;2.93;;;;;;;;;;6243213;28;20468;-78
2023/08/09 17:33:22;;;;;;;10.03;3.83;;;;;;;;;;6241030;28;20021;-79
2023/08/09 17:36:23;;;;;;;4.65;2.45;;;;;;;;;;6242765;28;20032;-76
2023/08/09 17:39:23;;;;;;;6.17;2.57;;;;;;;;;;6243338;28;20717;-77
2023/08/09 17:42:23;;;;;;;4.65;2.90;;;;;;;;;;6242808;28;20036;-77
2023/08/09 17:45:24;;;;;;;10.07;4.70;;;;;;;;;;6237356;28;20103;-78
2023/08/09 17:48:24;;;;;;;5.63;3.30;;;;;;;;;;6241645;28;20160;-77
2023/08/09 17:51:25;;;;;;;6.87;3.83;;;;;;;;;;6223525;28;20120;-77
2023/08/09 17:54:25;;;;;;;10.00;6.43;;;;;;;;;;6237824;28;20022;-77
2023/08/09 17:57:25;;;;;;;9.50;4.78;;;;;;;;;;6247218;28;20037;-77
2023/08/09 18:00:26;;;;;;;5.67;2.83;;;;;;;;;;6223967;28;20033;-79
2023/08/09 18:03:26;;;;;;;5.53;2.43;;;;;;;;;;6241644;28;20042;-79
2023/08/09 18:06:26;;;;;;;6.10;2.80;;;;;;;;;;6242796;28;20040;-78